Flight Track Log - Related Links

Times and Time Zones

All times are in EDT time to prevent confusion due to time zone crossing. See the DAL6225 flight status page for this flight to view local times or setup timezone preferences in your user account.

Time Position Orientation Groundspeed Altitude Reporting Facility
EDT Latitude Longitude Course Direction KTS MPH feet Rate Location/Type
Wed 08:04:25 AM 43.1714 -89.3097 93° East 163 188 2,900  Level Chicago Center
Wed 08:05:27 AM 43.1678 -89.2147 93° East 242 278 4,600 2,081 Climbing Chicago Center
Wed 08:06:29 AM 43.1622 -89.0800 93° East 298 343 7,200 2,565 Climbing Chicago Center
Wed 08:07:31 AM 43.1553 -88.9567 94° East 320 368 9,900 1,902 Climbing Chicago Center
Wed 08:08:32 AM 43.1478 -88.8194 94° East 367 422 11,100 1,512 Climbing Chicago Center
Wed 08:09:34 AM 43.1383 -88.6692 95° East 392 451 13,000 1,984 Climbing Chicago Center
Wed 08:10:36 AM 43.1297 -88.5131 94° East 410 472 15,200 2,177 Climbing Chicago Center
Wed 08:11:38 AM 43.1183 -88.3289 95° East 418 481 17,500 1,984 Climbing Chicago Center
Wed 08:12:40 AM 43.1228 -88.1675 88° East 427 491 19,300 1,659 Climbing Chicago Center
Wed 08:13:41 AM 43.1300 -88.0000 87° East 440 506 20,900 1,512 Climbing Chicago Center
Wed 08:14:43 AM 43.1383 -87.8297 86° East 446 513 22,400 1,403 Climbing Chicago Center
Wed 08:15:45 AM 43.1456 -87.6542 87° East 457 526 23,800 1,403 Climbing Chicago Center
Wed 08:16:47 AM 43.1556 -87.4425 86° East 473 544 25,300 1,317 Climbing Chicago Center
Wed 08:17:48 AM 43.1622 -87.2586 87° East 482 555 26,500 1,171 Climbing Chicago Center
Wed 08:18:50 AM 43.1706 -87.0719 86° East 490 564 27,700 1,016 Climbing Chicago Center
Wed 08:19:52 AM 43.1772 -86.8814 87° East 499 574 28,600 823 Climbing Chicago Center
Wed 08:20:54 AM 43.1836 -86.6892 87° East 505 581 29,400 823 Climbing Chicago Center
Wed 08:21:56 AM 43.1914 -86.4886 87° East 517 595 30,300 878 Climbing Chicago Center
Wed 08:22:57 AM 43.1978 -86.2917 87° East 519 597 31,200 927 Climbing Chicago Center
Wed 08:23:59 AM 43.2056 -86.0519 87° East 527 606 32,200 968 Climbing Chicago Center
Wed 08:25:01 AM 43.2122 -85.8531 87° East 527 606 33,200 968 Climbing Chicago Center
Wed 08:26:03 AM 43.2169 -85.6567 88° East 521 600 34,200 871 Climbing Chicago Center
Wed 08:27:05 AM 43.2228 -85.4619 88° East 520 598 35,000 774 Climbing Chicago Center
Wed 08:28:07 AM 43.2272 -85.2653 88° East 518 596 35,800 823 Climbing Chicago Center
Wed 08:29:09 AM 43.2317 -85.0694 88° East 516 594 36,700 585 Climbing Chicago Center
Wed 08:30:10 AM 43.2342 -84.8653 89° East 518 596 37,000 146 Climbing Chicago Center
Wed 08:31:12 AM 43.2389 -84.6656 88° East 522 601 37,000  Level Chicago Center
Wed 08:32:14 AM 43.2425 -84.4297 89° East 516 594 37,000  Level Chicago Center
Wed 08:33:12 AM 43.2439 -84.2486 89° East 513 590 37,000  Level Cleveland Center
Wed 08:34:12 AM 43.2469 -84.0919 88° East 513 590 37,000  Level Cleveland Center
Wed 08:35:12 AM 43.2494 -83.8583 89° East 512 589 37,000  Level Cleveland Center
Wed 08:36:12 AM 43.2508 -83.6617 89° East 512 589 37,000  Level Cleveland Center
Wed 08:37:12 AM 43.2517 -83.4619 90° East 517 595 37,000  Level Cleveland Center
Wed 08:38:12 AM 43.2544 -83.2656 89° East 517 595 37,000  Level Cleveland Center
Wed 08:39:12 AM 43.2544 -83.0744 90° East 511 588 37,000  Level Cleveland Center
Wed 08:40:12 AM 43.2564 -82.8808 89° East 511 588 37,000  Level Cleveland Center
Wed 08:41:12 AM 43.2517 -82.6867 92° East 511 588 37,000  Level Cleveland Center
Wed 08:42:12 AM 43.2444 -82.5011 93° East 500 575 37,000  Level Cleveland Center
Wed 08:43:12 AM 43.2306 -82.3297 96° East 500 575 37,000  Level Cleveland Center
Wed 08:44:13 AM 43.2000 -82.1000 100° East 500 575 37,000  Level Toronto Center
Wed 08:45:13 AM 43.1833 -81.9167 97° East 500 575 37,000  Level Toronto Center
Wed 08:46:13 AM 43.1833 -81.7167 90° East 500 575 37,000  Level Toronto Center
Wed 08:47:13 AM 43.1667 -81.5500 98° East 500 575 37,000  Level Toronto Center
Wed 08:48:13 AM 43.1500 -81.3500 96° East 500 575 37,000  Level Toronto Center
Wed 08:49:13 AM 43.1333 -81.1667 97° East 500 575 37,000  Level Toronto Center
Wed 08:50:13 AM 43.1167 -80.9500 96° East 500 575 37,000  Level Toronto Center
Wed 08:51:14 AM 43.1167 -80.7667 90° East 500 575 37,000  Level Toronto Center
Wed 08:52:13 AM 43.1000 -80.6000 98° East 500 575 37,000  Level Toronto Center
Wed 08:53:13 AM 43.0833 -80.4167 97° East 500 575 37,000  Level Toronto Center
Wed 08:54:13 AM 43.0667 -80.2000 96° East 500 575 37,000  Level Toronto Center
Wed 08:55:13 AM 43.0500 -80.0167 97° East 510 587 37,000  Level Toronto Center
Wed 08:56:13 AM 43.0333 -79.8167 96° East 500 575 37,000  Level Toronto Center
Wed 08:57:13 AM 43.0167 -79.6333 97° East 500 575 37,000  Level Toronto Center
Wed 08:58:13 AM 43.0000 -79.4500 97° East 490 564 37,000  Level Toronto Center
Wed 08:59:13 AM 42.9833 -79.2667 97° East 490 564 37,000  Level Toronto Center
Wed 09:00:13 AM 42.9667 -79.0833 97° East 490 564 37,000  Level Toronto Center
Wed 09:01:13 AM 42.9500 -78.9000 97° East 490 564 37,000  Level Toronto Center
Wed 09:02:13 AM 42.9333 -78.7167 97° East 490 564 37,000  Level Toronto Center
Wed 09:03:00 AM 42.9247 -78.6042 96° East 486 559 37,000  Level Cleveland Center
Wed 09:04:00 AM 42.9067 -78.4147 97° East 486 559 37,000  Level Cleveland Center
Wed 09:05:00 AM 42.8864 -78.2283 98° East 486 559 37,000  Level Cleveland Center
Wed 09:06:00 AM 42.8678 -78.0394 98° East 492 566 37,000  Level Cleveland Center
Wed 09:07:00 AM 42.8489 -77.8503 98° East 497 572 37,000  Level Cleveland Center
Wed 09:08:00 AM 42.8275 -77.6589 99° East 503 579 37,000  Level Cleveland Center
Wed 09:09:00 AM 42.8017 -77.4675 100° East 503 579 37,000  Level Cleveland Center
Wed 09:10:00 AM 42.7764 -77.3019 102° East 503 579 37,000  Level Cleveland Center
Wed 09:11:29 AM 42.7317 -77.0086 102° East 500 575 37,000  Level Boston Center
Wed 09:12:41 AM 42.7056 -76.8231 101° East 494 568 37,000 -136 Level Boston Center
Wed 09:13:41 AM 42.6744 -76.6033 101° East 489 563 36,700 -650 Descending Boston Center
Wed 09:14:41 AM 42.6494 -76.4236 101° East 489 563 35,700 -1,000 Descending Boston Center
Wed 09:15:41 AM 42.6203 -76.2439 102° East 489 563 34,700 -1,000 Descending Boston Center
Wed 09:16:41 AM 42.5983 -76.0875 101° East 477 549 33,700 -1,000 Descending Boston Center
Wed 09:17:41 AM 42.5706 -75.9081 102° East 477 549 32,700 -1,000 Descending Boston Center
Wed 09:18:41 AM 42.5425 -75.7261 102° East 477 549 31,700 -909 Descending Boston Center
Wed 09:19:53 AM 42.5122 -75.5414 102° East 483 556 30,700 -1,000 Descending Boston Center
Wed 09:20:53 AM 42.4803 -75.3286 101° East 483 556 29,500 -1,100 Descending Boston Center
Wed 09:21:53 AM 42.4344 -75.1606 110° East 483 556 28,500 -900 Descending Boston Center
Wed 09:22:53 AM 42.3875 -75.0319 116° Southeast 476 548 27,700 -1,450 Descending Boston Center
Wed 09:23:53 AM 42.3206 -74.8494 116° Southeast 465 535 25,600 -1,955 Descending Boston Center
Wed 09:25:05 AM 42.2653 -74.6986 116° Southeast 454 522 23,400 -2,182 Descending Boston Center
Wed 09:26:05 AM 42.2019 -74.5253 116° Southeast 441 507 20,800 -2,250 Descending Boston Center
Wed 09:27:05 AM 42.1464 -74.3722 116° Southeast 421 484 18,900 -1,450 Descending Boston Center
Wed 09:28:05 AM 42.0900 -74.2419 120° Southeast 407 468 17,900 -450 Descending Boston Center
Wed 09:29:05 AM 42.0317 -74.1172 122° Southeast 401 461 18,000 50 Climbing Boston Center
Wed 09:30:05 AM 41.9625 -74.0036 129° Southeast 401 461 18,000 -300 Level Boston Center
Wed 09:31:05 AM 41.8669 -73.9678 164° South 381 438 17,400 -1,250 Descending Boston Center
Wed 09:32:05 AM 41.7569 -73.9317 166° South 372 428 15,500 -1,700 Descending Boston Center
Wed 09:33:05 AM 41.6678 -73.9047 167° South 372 428 14,000 -1,250 Descending Boston Center
Wed 09:34:05 AM 41.5597 -73.8689 166° South 372 428 13,000 -1,536 Descending Boston Center
Wed 09:35:10 AM 41.4500 -73.8333 166° South 348 400 10,800 -1,728 Descending New York TRACON
Wed 09:36:10 AM 41.3667 -73.8000 163° South 291 335 9,400 -1,250 Descending New York TRACON
Wed 09:37:10 AM 41.3000 -73.7667 159° South 296 341 8,300 -1,350 Descending New York TRACON
Wed 09:38:10 AM 41.2333 -73.7000 143° Southeast 289 333 6,700 -1,750 Descending New York TRACON
Wed 09:39:10 AM 41.1667 -73.6333 143° Southeast 279 321 4,800 -1,286 Descending New York TRACON
Wed 09:40:16 AM 41.1000 -73.6167 169° South 236 272 4,000 -400 Descending New York TRACON
Wed 09:41:10 AM 41.0500 -73.6500 207° Southwest 197 227 4,000  Level New York TRACON
Wed 09:42:04 AM 41.0167 -73.6833 217° Southwest 196 226 4,000 -158 Level New York TRACON
Wed 09:43:04 AM 40.9667 -73.7167 207° Southwest 193 222 3,700 -421 Descending New York TRACON
Wed 09:43:58 AM 40.9333 -73.7500 217° Southwest 194 223 3,200 -750 Descending New York TRACON
Wed 09:45:04 AM 40.8833 -73.7833 207° Southwest 183 211 2,200 -800 Descending New York TRACON
Wed 09:45:58 AM 40.8500 -73.8167 217° Southwest 132 152 1,600 -737 Descending New York TRACON
Wed 09:46:58 AM 40.8167 -73.8500 217° Southwest 140 161 800 -737 Descending New York TRACON
Wed 09:47:52 AM 40.8000 -73.8667 217° Southwest 130 150 200 -667 Descending New York TRACON
Wed 09:49:00 AM 40.7772 -73.8726 180° South  Level Estimated
Wed 09:56:00 AM 40.7772 -73.8726 180° South  Level Estimated
Wed 09:57:00 AM 40.7772 -73.8726 180° South  Level Estimated

Login

Don't have an account? Register now (free) for customized features, flight alerts, and more!